createdAt,value
2016-08-11T00:00:14.427Z,0
2016-08-11T00:01:14.389Z,0
2016-08-11T00:02:14.365Z,0
2016-08-11T00:03:14.337Z,0
2016-08-11T00:04:14.310Z,0
2016-08-11T00:05:14.287Z,0
2016-08-11T00:06:14.268Z,0
2016-08-11T00:07:14.233Z,0
2016-08-11T00:08:14.208Z,0
2016-08-11T00:09:14.185Z,0
2016-08-11T00:10:14.159Z,0
2016-08-11T00:11:14.132Z,0
2016-08-11T00:12:14.108Z,0
2016-08-11T00:14:14.065Z,0
2016-08-11T00:15:14.032Z,0
2016-08-11T00:16:14.012Z,0
2016-08-11T00:17:13.983Z,0
2016-08-11T00:18:13.962Z,0
2016-08-11T00:19:13.934Z,0
2016-08-11T00:20:13.908Z,0
2016-08-11T00:21:13.881Z,0
2016-08-11T00:22:13.865Z,0
2016-08-11T00:23:13.842Z,0
2016-08-11T00:24:13.810Z,0
2016-08-11T00:25:13.783Z,0
2016-08-11T00:26:13.755Z,0
2016-08-11T00:27:13.731Z,0
2016-08-11T00:29:13.682Z,0
2016-08-11T00:30:13.657Z,0
2016-08-11T00:31:14.320Z,0
2016-08-11T00:32:13.611Z,0
2016-08-11T00:33:13.579Z,0
2016-08-11T00:34:13.553Z,0
2016-08-11T00:35:13.528Z,0
2016-08-11T00:36:13.510Z,0
2016-08-11T00:37:13.476Z,0
2016-08-11T00:38:13.453Z,0
2016-08-11T00:39:13.428Z,0
2016-08-11T00:40:13.397Z,0
2016-08-11T00:41:13.376Z,0
2016-08-11T00:42:13.346Z,0
2016-08-11T00:43:13.321Z,0
2016-08-11T00:44:13.301Z,0
2016-08-11T00:45:13.284Z,0
2016-08-11T00:46:13.243Z,0
2016-08-11T00:47:13.226Z,0
2016-08-11T00:48:13.195Z,0
2016-08-11T00:49:13.870Z,0
2016-08-11T00:50:13.144Z,0
2016-08-11T00:51:13.121Z,0
2016-08-11T00:52:13.094Z,0
2016-08-11T00:53:13.073Z,0
2016-08-11T00:54:13.039Z,0
2016-08-11T00:55:13.017Z,0
2016-08-11T00:56:12.990Z,0
2016-08-11T00:57:12.967Z,0
2016-08-11T00:58:12.940Z,0
2016-08-11T00:59:12.910Z,0
2016-08-11T01:00:12.889Z,0
2016-08-11T01:01:12.864Z,0
2016-08-11T01:02:12.842Z,0
2016-08-11T01:03:12.809Z,0
2016-08-11T01:04:12.786Z,0
2016-08-11T01:05:12.758Z,0
2016-08-11T01:06:12.735Z,0
2016-08-11T01:07:12.711Z,0
2016-08-11T01:08:12.681Z,0
2016-08-11T01:09:12.664Z,0
2016-08-11T01:10:12.630Z,0
2016-08-11T01:11:12.604Z,0
2016-08-11T01:12:12.627Z,0
2016-08-11T01:13:13.253Z,0
2016-08-11T01:14:12.527Z,0
2016-08-11T01:15:12.505Z,0
2016-08-11T01:16:12.489Z,0
2016-08-11T01:17:12.446Z,0
2016-08-11T01:18:12.436Z,0
2016-08-11T01:19:12.404Z,0
2016-08-11T01:20:12.381Z,0
2016-08-11T01:21:12.344Z,0
2016-08-11T01:22:12.328Z,0
2016-08-11T01:23:12.297Z,0
2016-08-11T01:24:12.283Z,0
2016-08-11T01:25:12.246Z,0
2016-08-11T01:26:12.911Z,0
2016-08-11T01:27:12.191Z,0
2016-08-11T01:28:12.184Z,0
2016-08-11T01:29:12.143Z,0
2016-08-11T01:30:12.124Z,0
2016-08-11T01:31:12.090Z,0
2016-08-11T01:32:12.064Z,0
2016-08-11T01:33:12.041Z,0
2016-08-11T01:34:12.018Z,0
2016-08-11T01:35:11.991Z,0
2016-08-11T01:36:11.962Z,0
2016-08-11T01:37:11.936Z,0
2016-08-11T01:38:11.911Z,0
2016-08-11T01:39:11.881Z,0
2016-08-11T01:40:11.863Z,0
2016-08-11T01:41:11.850Z,0
2016-08-11T01:42:11.808Z,0
2016-08-11T01:43:11.779Z,0
2016-08-11T01:44:11.751Z,0
2016-08-11T01:45:11.747Z,0
2016-08-11T01:46:11.706Z,0
2016-08-11T01:47:11.680Z,0
2016-08-11T01:48:11.656Z,0
2016-08-11T01:49:11.626Z,0
2016-08-11T01:50:11.613Z,0
2016-08-11T01:51:11.577Z,0
2016-08-11T01:52:11.552Z,0
2016-08-11T01:53:11.523Z,0
2016-08-11T01:54:11.499Z,0
2016-08-11T01:55:11.477Z,0
2016-08-11T01:56:11.447Z,0
2016-08-11T01:57:11.418Z,0
2016-08-11T01:58:11.401Z,0
2016-08-11T01:59:11.370Z,0
2016-08-11T02:00:11.609Z,0
2016-08-11T02:01:11.322Z,0
2016-08-11T02:02:11.302Z,0
2016-08-11T02:03:11.267Z,0
2016-08-11T02:04:11.240Z,0
2016-08-11T02:05:11.239Z,0
2016-08-11T02:06:11.185Z,0
2016-08-11T02:07:11.175Z,0
2016-08-11T02:08:11.144Z,0
2016-08-11T02:09:11.120Z,0
2016-08-11T02:10:11.088Z,0
2016-08-11T02:11:11.060Z,0
2016-08-11T02:12:11.033Z,0
2016-08-11T02:13:11.010Z,0
2016-08-11T02:14:10.984Z,0
2016-08-11T02:15:10.956Z,0
2016-08-11T02:16:10.932Z,0
2016-08-11T02:17:10.909Z,0
2016-08-11T02:18:10.885Z,0
2016-08-11T02:19:10.854Z,0
2016-08-11T02:20:10.840Z,0
2016-08-11T02:21:10.808Z,0
2016-08-11T02:22:10.798Z,0
2016-08-11T02:23:10.766Z,0
2016-08-11T02:24:10.722Z,0
2016-08-11T02:25:10.698Z,0
2016-08-11T02:26:10.678Z,0
2016-08-11T02:27:10.646Z,0
2016-08-11T02:28:10.618Z,0
2016-08-11T02:29:10.593Z,0
2016-08-11T02:30:10.580Z,0
2016-08-11T02:31:10.545Z,0
2016-08-11T02:32:10.517Z,0
2016-08-11T02:33:10.491Z,0
2016-08-11T02:34:11.169Z,0
2016-08-11T02:35:10.460Z,0
2016-08-11T02:36:10.427Z,0
2016-08-11T02:37:10.392Z,0
2016-08-11T02:38:10.369Z,0
2016-08-11T02:39:10.339Z,0
2016-08-11T02:40:10.311Z,0
2016-08-11T02:41:10.284Z,0
2016-08-11T02:42:10.256Z,0
2016-08-11T02:43:10.244Z,0
2016-08-11T02:44:10.207Z,0
2016-08-11T02:45:10.201Z,0
2016-08-11T02:46:10.157Z,0
2016-08-11T02:47:10.127Z,0
2016-08-11T02:48:10.102Z,0
2016-08-11T02:49:10.091Z,0
2016-08-11T02:50:10.056Z,0
2016-08-11T02:51:10.025Z,0
2016-08-11T02:52:09.999Z,0
2016-08-11T02:53:09.981Z,0
2016-08-11T02:54:09.950Z,0
2016-08-11T02:55:09.921Z,0
2016-08-11T02:56:09.895Z,0
2016-08-11T02:57:09.870Z,0
2016-08-11T02:58:09.851Z,0
2016-08-11T02:59:09.819Z,0
2016-08-11T03:00:09.796Z,0
2016-08-11T03:01:09.763Z,0
2016-08-11T03:02:09.746Z,0
2016-08-11T03:03:09.717Z,0
2016-08-11T03:04:09.685Z,0
2016-08-11T03:05:09.661Z,0
2016-08-11T03:06:09.661Z,0
2016-08-11T03:07:09.609Z,0
2016-08-11T03:08:09.583Z,0
2016-08-11T03:09:09.557Z,0
2016-08-11T03:10:09.532Z,0
2016-08-11T03:11:09.507Z,0
2016-08-11T03:12:09.476Z,0
2016-08-11T03:13:09.452Z,0
2016-08-11T03:14:09.429Z,0
2016-08-11T03:15:09.408Z,0
2016-08-11T03:16:10.064Z,0
2016-08-11T03:17:09.350Z,0
2016-08-11T03:18:09.325Z,0
2016-08-11T03:19:09.295Z,0
2016-08-11T03:20:09.269Z,0
2016-08-11T03:21:09.240Z,0
2016-08-11T03:22:09.218Z,0
2016-08-11T03:23:09.186Z,0
2016-08-11T03:24:09.165Z,0
2016-08-11T03:25:09.141Z,0
2016-08-11T03:26:09.134Z,0
2016-08-11T03:27:09.082Z,0
2016-08-11T03:28:09.061Z,0
2016-08-11T03:29:09.034Z,4
2016-08-11T03:30:09.016Z,4
2016-08-11T03:31:08.993Z,4
2016-08-11T03:32:08.953Z,0
2016-08-11T03:33:08.930Z,4
2016-08-11T03:34:08.905Z,4
2016-08-11T03:35:08.889Z,4
2016-08-11T03:36:08.850Z,4
2016-08-11T03:37:08.828Z,8
2016-08-11T03:38:08.795Z,8
2016-08-11T03:39:08.767Z,8
2016-08-11T03:40:08.749Z,8
2016-08-11T03:41:08.719Z,8
2016-08-11T03:42:08.692Z,12
2016-08-11T03:43:08.665Z,16
2016-08-11T03:44:08.639Z,16
2016-08-11T03:45:08.622Z,20
2016-08-11T03:46:08.590Z,24
2016-08-11T03:47:08.563Z,24
2016-08-11T03:48:08.535Z,32
2016-08-11T03:49:08.510Z,32
2016-08-11T03:50:08.497Z,40
2016-08-11T03:51:08.451Z,44
2016-08-11T03:52:08.434Z,52
2016-08-11T03:53:08.412Z,60
2016-08-11T03:54:08.380Z,68
2016-08-11T03:55:08.355Z,80
2016-08-11T03:56:08.324Z,88
2016-08-11T03:57:08.300Z,104
2016-08-11T03:58:08.274Z,116
2016-08-11T03:59:08.253Z,132
2016-08-11T04:00:08.221Z,148
2016-08-11T04:01:08.192Z,164
2016-08-11T04:02:08.167Z,184
2016-08-11T04:03:08.144Z,200
2016-08-11T04:04:08.113Z,224
2016-08-11T04:05:08.786Z,248
2016-08-11T04:06:08.090Z,272
2016-08-11T04:07:08.046Z,296
2016-08-11T04:08:08.005Z,324
2016-08-11T04:09:08.017Z,356
2016-08-11T04:10:07.961Z,388
2016-08-11T04:11:07.931Z,420
2016-08-11T04:12:07.900Z,448
2016-08-11T04:13:07.887Z,476
2016-08-11T04:14:07.850Z,508
2016-08-11T04:15:07.830Z,544
2016-08-11T04:16:07.799Z,576
2016-08-11T04:17:07.771Z,616
2016-08-11T04:18:07.751Z,656
2016-08-11T04:19:07.727Z,692
2016-08-11T04:20:07.693Z,736
2016-08-11T04:21:07.666Z,780
2016-08-11T04:22:07.639Z,824
2016-08-11T04:23:07.637Z,872
2016-08-11T04:24:07.588Z,912
2016-08-11T04:25:07.568Z,948
2016-08-11T04:26:07.538Z,984
2016-08-11T04:27:07.514Z,1024
2016-08-11T04:28:07.491Z,1072
2016-08-11T04:29:07.448Z,1124
2016-08-11T04:30:07.435Z,1176
2016-08-11T04:31:07.428Z,1232
2016-08-11T04:32:07.380Z,1276
2016-08-11T04:33:07.353Z,1332
2016-08-11T04:34:07.326Z,1376
2016-08-11T04:35:07.304Z,1428
2016-08-11T04:36:07.282Z,1484
2016-08-11T04:37:07.251Z,1556
2016-08-11T04:38:07.224Z,1636
2016-08-11T04:39:07.199Z,1716
2016-08-11T04:40:07.287Z,1796
2016-08-11T04:41:07.146Z,1892
2016-08-11T04:42:07.120Z,1984
2016-08-11T04:43:07.228Z,2068
2016-08-11T04:44:07.068Z,2160
2016-08-11T04:45:07.472Z,2244
2016-08-11T04:46:07.762Z,2332
2016-08-11T04:47:06.987Z,2420
2016-08-11T04:48:06.976Z,2524
2016-08-11T04:49:06.933Z,2628
2016-08-11T04:50:06.909Z,2740
2016-08-11T04:51:06.890Z,2864
2016-08-11T04:52:06.858Z,2984
2016-08-11T04:53:08.170Z,3128
2016-08-11T04:54:06.811Z,3280
2016-08-11T04:55:06.783Z,3440
2016-08-11T04:56:06.755Z,3564
2016-08-11T04:57:06.735Z,3692
2016-08-11T04:58:06.705Z,3800
2016-08-11T04:59:06.680Z,3880
2016-08-11T05:00:06.661Z,3956
2016-08-11T05:01:06.631Z,4036
2016-08-11T05:02:06.600Z,4120
2016-08-11T05:03:06.576Z,4180
2016-08-11T05:04:06.553Z,4248
2016-08-11T05:05:06.527Z,4316
2016-08-11T05:06:06.503Z,4352
2016-08-11T05:07:06.483Z,4376
2016-08-11T05:08:07.998Z,4416
2016-08-11T05:09:06.427Z,4444
2016-08-11T05:10:06.401Z,4472
2016-08-11T05:11:06.372Z,4524
2016-08-11T05:12:06.353Z,4588
2016-08-11T05:13:06.332Z,4656
2016-08-11T05:14:06.291Z,4828
2016-08-11T05:15:06.742Z,5008
2016-08-11T05:16:06.480Z,5212
2016-08-11T05:17:07.339Z,5400
2016-08-11T05:18:06.209Z,5472
2016-08-11T05:19:06.174Z,5552
2016-08-11T05:20:06.164Z,5672
2016-08-11T05:21:06.123Z,5800
2016-08-11T05:22:06.116Z,5956
2016-08-11T05:23:06.077Z,6076
2016-08-11T05:24:06.056Z,6284
2016-08-11T05:25:06.023Z,6420
2016-08-11T05:26:06.768Z,6680
2016-08-11T05:27:05.974Z,6812
2016-08-11T05:28:05.949Z,7032
2016-08-11T05:30:06.227Z,7292
2016-08-11T05:31:05.880Z,7368
2016-08-11T05:32:05.853Z,7480
2016-08-11T05:33:06.662Z,7596
2016-08-11T05:34:05.804Z,7712
2016-08-11T05:35:05.789Z,7976
2016-08-11T05:36:05.763Z,8228
2016-08-11T05:37:05.733Z,8536
2016-08-11T05:38:05.706Z,8768
2016-08-11T05:39:05.685Z,8784
2016-08-11T05:40:05.653Z,8860
2016-08-11T05:41:05.639Z,8768
2016-08-11T05:42:05.620Z,8716
2016-08-11T05:43:06.292Z,8532
2016-08-11T05:45:05.536Z,8464
2016-08-11T05:46:05.515Z,8560
2016-08-11T05:47:05.491Z,8564
2016-08-11T05:48:05.471Z,8664
2016-08-11T05:49:05.447Z,8696
2016-08-11T05:50:05.416Z,8856
2016-08-11T05:51:05.392Z,8980
2016-08-11T05:52:05.369Z,9068
2016-08-11T05:53:05.346Z,9140
2016-08-11T05:54:05.322Z,9056
2016-08-11T05:55:05.297Z,9016
2016-08-11T05:56:05.274Z,8588
2016-08-11T05:57:05.252Z,8360
2016-08-11T05:58:05.228Z,8056
2016-08-11T05:59:05.203Z,7736
2016-08-11T06:00:05.189Z,7556
2016-08-11T06:01:05.180Z,7556
2016-08-11T06:02:05.142Z,7332
2016-08-11T06:03:05.126Z,7108
2016-08-11T06:04:05.087Z,6972
2016-08-11T06:05:05.071Z,6732
2016-08-11T06:06:05.044Z,6640
2016-08-11T06:07:05.017Z,6728
2016-08-11T06:08:04.998Z,6804
2016-08-11T06:09:05.261Z,6820
2016-08-11T06:10:04.978Z,6848
2016-08-11T06:11:04.936Z,6936
2016-08-11T06:12:04.937Z,7068
2016-08-11T06:13:05.152Z,7216
2016-08-11T06:14:04.966Z,7372
2016-08-11T06:15:04.836Z,7592
2016-08-11T06:16:04.810Z,7908
2016-08-11T06:17:04.786Z,8260
2016-08-11T06:18:04.766Z,8624
2016-08-11T06:19:04.774Z,8932
2016-08-11T06:20:04.720Z,9216
2016-08-11T06:21:04.698Z,9548
2016-08-11T06:22:04.684Z,9868
2016-08-11T06:23:04.648Z,10144
2016-08-11T06:24:04.678Z,10424
2016-08-11T06:25:04.599Z,10792
2016-08-11T06:26:05.501Z,11452
2016-08-11T06:27:04.568Z,12256
2016-08-11T06:28:04.533Z,12968
2016-08-11T06:29:04.510Z,13428
2016-08-11T06:30:04.491Z,13888
2016-08-11T06:31:04.463Z,14296
2016-08-11T06:32:04.449Z,14752
2016-08-11T06:33:04.427Z,15204
2016-08-11T06:34:04.404Z,15608
2016-08-11T06:35:04.433Z,15620
2016-08-11T06:36:04.354Z,15388
2016-08-11T06:37:04.338Z,15020
2016-08-11T06:38:04.316Z,14328
2016-08-11T06:39:04.307Z,13664
2016-08-11T06:40:04.268Z,13336
2016-08-11T06:41:04.282Z,13368
2016-08-11T06:42:04.230Z,13580
2016-08-11T06:43:04.211Z,13820
2016-08-11T06:44:04.249Z,14008
2016-08-11T06:45:04.622Z,14204
2016-08-11T06:46:04.135Z,14140
2016-08-11T06:47:04.117Z,13828
2016-08-11T06:48:04.159Z,13896
2016-08-11T06:49:04.074Z,14100
2016-08-11T06:50:04.074Z,14108
2016-08-11T06:51:04.084Z,14000
2016-08-11T06:52:04.843Z,13724
2016-08-11T06:53:04.112Z,13480
2016-08-11T06:54:03.973Z,13628
2016-08-11T06:55:04.314Z,13520
2016-08-11T06:56:04.027Z,13420
2016-08-11T06:57:03.898Z,13420
2016-08-11T06:58:03.879Z,13452
2016-08-11T06:59:03.880Z,13540
2016-08-11T07:00:04.529Z,13728
2016-08-11T07:01:03.825Z,13980
2016-08-11T07:02:03.803Z,14364
2016-08-11T07:03:04.435Z,14832
2016-08-11T07:04:03.762Z,15304
2016-08-11T07:05:04.217Z,15592
2016-08-11T07:06:04.297Z,15616
2016-08-11T07:07:03.979Z,15680
2016-08-11T07:08:04.123Z,15920
2016-08-11T07:09:04.540Z,16240
2016-08-11T07:10:04.071Z,16612
2016-08-11T07:11:05.118Z,16976
2016-08-11T07:12:03.846Z,17472
2016-08-11T07:13:04.095Z,17856
2016-08-11T07:14:03.656Z,18304
2016-08-11T07:15:03.531Z,18752
2016-08-11T07:16:04.201Z,19040
2016-08-11T07:17:03.812Z,19616
2016-08-11T07:18:05.169Z,20544
2016-08-11T07:19:03.674Z,21024
2016-08-11T07:20:04.736Z,21280
2016-08-11T07:21:03.683Z,21472
2016-08-11T07:22:03.916Z,21376
2016-08-11T07:23:03.357Z,20896
2016-08-11T07:24:04.883Z,20000
2016-08-11T07:25:03.352Z,19040
2016-08-11T07:26:03.302Z,18208
2016-08-11T07:27:03.597Z,17472
2016-08-11T07:28:03.392Z,16692
2016-08-11T07:29:04.040Z,16124
2016-08-11T07:30:03.246Z,15524
2016-08-11T07:31:03.235Z,15036
2016-08-11T07:32:03.360Z,14788
2016-08-11T07:33:03.865Z,14772
2016-08-11T07:34:03.307Z,14888
2016-08-11T07:35:03.809Z,15108
2016-08-11T07:36:03.186Z,15288
2016-08-11T07:37:03.123Z,15432
2016-08-11T07:38:03.058Z,15496
2016-08-11T07:39:03.172Z,15452
2016-08-11T07:40:03.025Z,15368
2016-08-11T07:41:03.260Z,15276
2016-08-11T07:42:03.034Z,15220
2016-08-11T07:43:03.024Z,15292
2016-08-11T07:44:03.129Z,15432
2016-08-11T07:45:03.000Z,15732
2016-08-11T07:46:02.981Z,16128
2016-08-11T07:47:03.041Z,16540
2016-08-11T07:48:02.988Z,16848
2016-08-11T07:49:02.847Z,17020
2016-08-11T07:50:02.856Z,17132
2016-08-11T07:51:02.806Z,17472
2016-08-11T07:52:03.410Z,17632
2016-08-11T07:53:02.764Z,17792
2016-08-11T07:54:02.902Z,17792
2016-08-11T07:55:02.720Z,17536
2016-08-11T07:56:02.790Z,16876
2016-08-11T07:57:03.726Z,16752
2016-08-11T07:58:02.773Z,16820
2016-08-11T07:59:02.655Z,16876
2016-08-11T08:00:02.719Z,16904
2016-08-11T08:01:02.848Z,16856
2016-08-11T08:02:02.585Z,16892
2016-08-11T08:03:02.578Z,17440
2016-08-11T08:04:02.546Z,18016
2016-08-11T08:05:02.535Z,18784
2016-08-11T08:06:03.239Z,19520
2016-08-11T08:07:02.608Z,19872
2016-08-11T08:08:04.043Z,20256
2016-08-11T08:09:04.074Z,21120
2016-08-11T08:10:02.431Z,21696
2016-08-11T08:11:02.507Z,21920
2016-08-11T08:12:04.146Z,21728
2016-08-11T08:13:02.379Z,21728
2016-08-11T08:14:02.356Z,22048
2016-08-11T08:15:02.565Z,22592
2016-08-11T08:16:03.024Z,23392
2016-08-11T08:17:03.155Z,24128
2016-08-11T08:18:02.300Z,24576
2016-08-11T08:19:02.363Z,24768
2016-08-11T08:20:02.322Z,24736
2016-08-11T08:21:02.363Z,24416
2016-08-11T08:22:02.945Z,24064
2016-08-11T08:23:02.200Z,24128
2016-08-11T08:24:02.179Z,24544
2016-08-11T08:25:02.157Z,24640
2016-08-11T08:26:02.829Z,24288
2016-08-11T08:27:02.280Z,23808
2016-08-11T08:28:02.103Z,23456
2016-08-11T08:29:02.287Z,23136
2016-08-11T08:30:03.106Z,22656
2016-08-11T08:31:02.316Z,21984
2016-08-11T08:32:02.777Z,21568
2016-08-11T08:33:03.498Z,21536
2016-08-11T08:34:02.559Z,21760
2016-08-11T08:35:01.975Z,22080
2016-08-11T08:36:02.356Z,22432
2016-08-11T08:37:02.739Z,22656
2016-08-11T08:38:01.950Z,22816
2016-08-11T08:39:02.577Z,23008
2016-08-11T08:40:02.390Z,23200
2016-08-11T08:41:02.326Z,23424
2016-08-11T08:42:02.561Z,23776
2016-08-11T08:43:03.033Z,24128
2016-08-11T08:44:02.599Z,24192
2016-08-11T08:45:03.138Z,24032
2016-08-11T08:46:01.780Z,24544
2016-08-11T08:47:02.029Z,24864
2016-08-11T08:48:02.766Z,24960
2016-08-11T08:49:03.980Z,25152
2016-08-11T08:50:03.140Z,25536
2016-08-11T08:51:01.746Z,25984
2016-08-11T08:52:01.706Z,26432
2016-08-11T08:53:02.541Z,26816
2016-08-11T08:54:02.659Z,27072
2016-08-11T08:55:01.813Z,27232
2016-08-11T08:56:01.648Z,27264
2016-08-11T08:57:01.586Z,26944
2016-08-11T08:58:02.361Z,26944
2016-08-11T08:59:01.786Z,27040
2016-08-11T09:00:01.536Z,27648
2016-08-11T09:01:01.575Z,27744
2016-08-11T09:02:01.677Z,27456
2016-08-11T09:03:01.489Z,27136
2016-08-11T09:04:01.538Z,27424
2016-08-11T09:05:01.982Z,27648
2016-08-11T09:06:01.722Z,27936
2016-08-11T09:07:02.755Z,28672
2016-08-11T09:08:01.436Z,29280
2016-08-11T09:09:01.743Z,29760
2016-08-11T09:10:01.356Z,29952
2016-08-11T09:11:01.540Z,29824
2016-08-11T09:12:01.328Z,29216
2016-08-11T09:13:01.326Z,28640
2016-08-11T09:14:01.343Z,28544
2016-08-11T09:15:02.044Z,28640
2016-08-11T09:16:01.271Z,28640
2016-08-11T09:17:01.999Z,28640
2016-08-11T09:18:01.960Z,29088
2016-08-11T09:19:01.246Z,29568
2016-08-11T09:20:03.009Z,29984
2016-08-11T09:21:01.286Z,30272
2016-08-11T09:22:01.368Z,30560
2016-08-11T09:23:01.451Z,30592
2016-08-11T09:24:03.020Z,30368
2016-08-11T09:25:02.755Z,30400
2016-08-11T09:26:01.103Z,30720
2016-08-11T09:27:01.454Z,31360
2016-08-11T09:28:01.287Z,32032
2016-08-11T09:29:02.352Z,32672
2016-08-11T09:30:01.968Z,33408
2016-08-11T09:31:01.456Z,33984
2016-08-11T09:32:01.326Z,34304
2016-08-11T09:33:01.117Z,34496
2016-08-11T09:34:01.357Z,34432
2016-08-11T09:35:01.473Z,34560
2016-08-11T09:36:01.991Z,34976
2016-08-11T09:37:01.229Z,35616
2016-08-11T09:38:02.297Z,36192
2016-08-11T09:39:01.015Z,36288
2016-08-11T09:40:01.295Z,36032
2016-08-11T09:41:00.864Z,35744
2016-08-11T09:42:01.118Z,35552
2016-08-11T09:43:00.994Z,35264
2016-08-11T09:44:00.900Z,34976
2016-08-11T09:45:01.174Z,34880
2016-08-11T09:46:00.797Z,34944
2016-08-11T09:47:00.770Z,35264
2016-08-11T09:48:01.451Z,35040
2016-08-11T09:49:00.852Z,34624
2016-08-11T09:50:01.093Z,33984
2016-08-11T09:51:01.704Z,32896
2016-08-11T09:52:02.960Z,32096
2016-08-11T09:53:02.492Z,31488
2016-08-11T09:54:01.116Z,31104
2016-08-11T09:55:00.654Z,31040
2016-08-11T09:56:00.636Z,31072
2016-08-11T09:57:00.680Z,31168
2016-08-11T09:58:00.650Z,31776
2016-08-11T09:59:00.929Z,32928
2016-08-11T10:00:00.582Z,33792
2016-08-11T10:01:00.572Z,34656
2016-08-11T10:02:00.545Z,35040
2016-08-11T10:03:00.533Z,35232
2016-08-11T10:04:00.564Z,35520
2016-08-11T10:05:00.900Z,36032
2016-08-11T10:06:02.130Z,36768
2016-08-11T10:07:01.740Z,36992
2016-08-11T10:08:00.481Z,36640
2016-08-11T10:09:00.457Z,35968
2016-08-11T10:10:01.037Z,35360
2016-08-11T10:11:00.472Z,35008
2016-08-11T10:12:00.562Z,34624
2016-08-11T10:13:00.396Z,33824
2016-08-11T10:14:00.379Z,32576
2016-08-11T10:15:00.918Z,31488
2016-08-11T10:16:00.487Z,31520
2016-08-11T10:17:00.426Z,32032
2016-08-11T10:18:01.833Z,32480
2016-08-11T10:19:00.660Z,32704
2016-08-11T10:20:00.626Z,33344
2016-08-11T10:21:01.386Z,33728
2016-08-11T10:22:00.262Z,33632
2016-08-11T10:23:00.241Z,33120
2016-08-11T10:24:00.242Z,32256
2016-08-11T10:25:00.231Z,31136
2016-08-11T10:26:00.217Z,30240
2016-08-11T10:27:00.568Z,28992
2016-08-11T10:28:00.916Z,27552
2016-08-11T10:29:00.636Z,26176
2016-08-11T10:30:00.295Z,25056
2016-08-11T10:31:01.093Z,24320
2016-08-11T10:32:00.771Z,24160
2016-08-11T10:33:00.920Z,24576
2016-08-11T10:34:00.134Z,25312
2016-08-11T10:35:00.766Z,25920
2016-08-11T10:36:00.114Z,26240
2016-08-11T10:37:00.771Z,26560
2016-08-11T10:38:00.133Z,26912
2016-08-11T10:39:00.011Z,27296
2016-08-11T10:39:59.994Z,27712
2016-08-11T10:41:00.071Z,28352
2016-08-11T10:41:59.961Z,28864
2016-08-11T10:42:59.942Z,29344
2016-08-11T10:44:00.617Z,30016
2016-08-11T10:44:59.915Z,30784
2016-08-11T10:46:00.606Z,31488
2016-08-11T10:47:00.018Z,32224
2016-08-11T10:47:59.862Z,33152
2016-08-11T10:48:59.848Z,33888
2016-08-11T10:49:59.875Z,34592
2016-08-11T10:50:59.818Z,35040
2016-08-11T10:51:59.804Z,35456
2016-08-11T10:52:59.794Z,35712
2016-08-11T10:53:59.783Z,36128
2016-08-11T10:54:59.756Z,36224
2016-08-11T10:55:59.744Z,35840
2016-08-11T10:56:59.727Z,35136
2016-08-11T10:57:59.728Z,34272
2016-08-11T10:58:59.693Z,33536
2016-08-11T10:59:59.682Z,33376
2016-08-11T11:00:59.663Z,33504
2016-08-11T11:01:59.787Z,33952
2016-08-11T11:03:00.251Z,34048
2016-08-11T11:03:59.619Z,34112
2016-08-11T11:05:00.126Z,33792
2016-08-11T11:05:59.589Z,33088
2016-08-11T11:06:59.593Z,32288
2016-08-11T11:07:59.560Z,31392
2016-08-11T11:08:59.557Z,30944
2016-08-11T11:09:59.949Z,30912
2016-08-11T11:10:59.515Z,30944
2016-08-11T11:11:59.506Z,31328
2016-08-11T11:13:00.990Z,32096
2016-08-11T11:13:59.850Z,32704
2016-08-11T11:14:59.455Z,33056
2016-08-11T11:16:00.720Z,33312
2016-08-11T11:16:59.772Z,33568
2016-08-11T11:18:00.140Z,33824
2016-08-11T11:18:59.558Z,34048
2016-08-11T11:20:01.389Z,33856
2016-08-11T11:20:59.699Z,33280
2016-08-11T11:22:01.179Z,32608
2016-08-11T11:23:00.481Z,32352
2016-08-11T11:24:00.235Z,32768
2016-08-11T11:25:00.057Z,33152
2016-08-11T11:25:59.311Z,33216
2016-08-11T11:27:00.091Z,33088
2016-08-11T11:27:59.604Z,32672
2016-08-11T11:28:59.548Z,32416
2016-08-11T11:30:59.689Z,33120
2016-08-11T11:31:59.680Z,33184
2016-08-11T11:32:59.612Z,32672
2016-08-11T11:33:59.985Z,32352
2016-08-11T11:35:01.873Z,31680
2016-08-11T11:36:00.749Z,31584
2016-08-11T11:37:00.130Z,32192
2016-08-11T11:37:59.814Z,32352
2016-08-11T11:39:00.264Z,31488
2016-08-11T11:40:00.020Z,30592
2016-08-11T11:41:01.016Z,30912
2016-08-11T11:42:00.020Z,31296
2016-08-11T11:42:59.880Z,30560
2016-08-11T11:44:00.182Z,29344
2016-08-11T11:46:00.162Z,27776
2016-08-11T11:46:59.915Z,27360
2016-08-11T11:48:00.094Z,26336
2016-08-11T11:48:59.955Z,26016
2016-08-11T11:50:01.485Z,25664
2016-08-11T11:51:02.347Z,25408
2016-08-11T11:52:01.024Z,25184
2016-08-11T11:52:59.776Z,24352
2016-08-11T11:54:00.094Z,23136
2016-08-11T11:54:59.960Z,22080
2016-08-11T11:55:59.813Z,20960
2016-08-11T11:57:00.081Z,19904
2016-08-11T11:58:00.285Z,19360
2016-08-11T11:58:59.575Z,19040
2016-08-11T12:00:59.207Z,17260
2016-08-11T12:02:00.530Z,16972
2016-08-11T12:02:59.098Z,16896
2016-08-11T12:03:59.098Z,16668
2016-08-11T12:04:59.857Z,16648
2016-08-11T12:05:59.794Z,16960
2016-08-11T12:06:59.515Z,16520
2016-08-11T12:08:00.051Z,16052
2016-08-11T12:08:59.128Z,15976
2016-08-11T12:09:59.092Z,15872
2016-08-11T12:10:59.140Z,15832
2016-08-11T12:11:59.238Z,14832
2016-08-11T12:12:58.921Z,13796
2016-08-11T12:13:58.900Z,13676
2016-08-11T12:14:59.255Z,12944
2016-08-11T12:15:58.856Z,10896
2016-08-11T12:16:58.507Z,9416
2016-08-11T12:17:58.559Z,8504
2016-08-11T12:18:59.264Z,8736
2016-08-11T12:19:59.155Z,9096
2016-08-11T12:20:58.440Z,9380
2016-08-11T12:21:58.427Z,9576
2016-08-11T12:22:58.414Z,8864
2016-08-11T12:23:58.460Z,7736
2016-08-11T12:24:58.393Z,7228
2016-08-11T12:25:59.594Z,7928
2016-08-11T12:26:59.540Z,10168
2016-08-11T12:27:58.717Z,12688
2016-08-11T12:28:58.648Z,14752
2016-08-11T12:29:59.171Z,15664
2016-08-11T12:30:58.614Z,16348
2016-08-11T12:31:59.147Z,16832
2016-08-11T12:32:59.584Z,17056
2016-08-11T12:33:59.010Z,14992
2016-08-11T12:34:58.994Z,16808
2016-08-11T12:35:58.531Z,17156
2016-08-11T12:36:58.501Z,15908
2016-08-11T12:38:00.520Z,13340
2016-08-11T12:38:58.146Z,12700
2016-08-11T12:39:58.107Z,12020
2016-08-11T12:40:58.091Z,10824
2016-08-11T12:41:59.168Z,11652
2016-08-11T12:42:58.398Z,14664
2016-08-11T12:43:59.524Z,17688
2016-08-11T12:45:00.670Z,19328
2016-08-11T12:45:59.767Z,21056
2016-08-11T12:46:59.342Z,24192
2016-08-11T12:47:59.488Z,27296
2016-08-11T12:49:00.699Z,28192
2016-08-11T12:49:59.773Z,28160
2016-08-11T12:50:59.328Z,28128
2016-08-11T12:51:59.814Z,28768
2016-08-11T12:52:59.320Z,30080
2016-08-11T12:53:59.463Z,30752
2016-08-11T12:54:59.441Z,30368
2016-08-11T12:55:58.831Z,28960
2016-08-11T12:56:58.248Z,28032
2016-08-11T12:57:58.318Z,28992
2016-08-11T12:58:58.640Z,28064
2016-08-11T12:59:59.149Z,25152
2016-08-11T13:00:59.174Z,23104
2016-08-11T13:01:58.426Z,22976
2016-08-11T13:02:57.800Z,23296
2016-08-11T13:03:57.899Z,22784
2016-08-11T13:04:57.921Z,21344
2016-08-11T13:05:58.343Z,18304
2016-08-11T13:06:58.109Z,14404
2016-08-11T13:07:58.058Z,14676
2016-08-11T13:08:58.296Z,16392
2016-08-11T13:09:57.892Z,14240
2016-08-11T13:10:57.847Z,10940
2016-08-11T13:11:57.561Z,9024
2016-08-11T13:12:57.535Z,8060
2016-08-11T13:13:57.797Z,7460
2016-08-11T13:14:57.538Z,7264
2016-08-11T13:15:57.584Z,6860
2016-08-11T13:16:58.665Z,6784
2016-08-11T13:17:57.456Z,7732
2016-08-11T13:18:57.551Z,10648
2016-08-11T13:19:58.881Z,14228
2016-08-11T13:20:57.840Z,15704
2016-08-11T13:21:59.102Z,16892
2016-08-11T13:22:57.901Z,16512
2016-08-11T13:23:57.732Z,15508
2016-08-11T13:24:58.708Z,15444
2016-08-11T13:25:58.253Z,16984
2016-08-11T13:26:57.570Z,16952
2016-08-11T13:27:57.649Z,16608
2016-08-11T13:28:59.050Z,18592
2016-08-11T13:29:58.589Z,19232
2016-08-11T13:30:58.415Z,18304
2016-08-11T13:31:58.018Z,16380
2016-08-11T13:32:57.260Z,16496
2016-08-11T13:33:57.161Z,18752
2016-08-11T13:34:57.185Z,19840